createdAt,value
2018-09-03T00:02:10.956Z,34.63
2018-09-03T00:04:40.159Z,33.07
2018-09-03T00:07:09.438Z,31.60
2018-09-03T00:09:40.390Z,34.07
2018-09-03T00:12:10.314Z,32.77
2018-09-03T00:14:39.653Z,31.67
2018-09-03T00:17:09.713Z,31.53
2018-09-03T00:19:39.202Z,30.10
2018-09-03T00:22:08.357Z,30.90
2018-09-03T00:24:37.648Z,32.67
2018-09-03T00:27:07.056Z,30.60
2018-09-03T00:29:37.179Z,34.67
2018-09-03T00:33:13.641Z,35.30
2018-09-03T00:35:48.023Z,35.60
2018-09-03T00:38:22.527Z,33.80
2018-09-03T00:40:56.977Z,33.10
2018-09-03T00:43:31.302Z,35.25
2018-09-03T00:46:05.777Z,39.67
2018-09-03T00:48:34.962Z,38.30
2018-09-03T00:51:04.131Z,38.63
2018-09-03T00:53:33.313Z,39.13
2018-09-03T00:56:02.576Z,39.03
2018-09-03T00:58:31.740Z,38.43
2018-09-03T01:01:00.930Z,38.40
2018-09-03T01:03:30.143Z,38.05
2018-09-03T01:05:59.357Z,37.97
2018-09-03T01:08:28.538Z,37.80
2018-09-03T01:10:57.710Z,37.47
2018-09-03T01:13:27.046Z,36.67
2018-09-03T01:15:56.253Z,40.10
2018-09-03T01:18:25.485Z,37.00
2018-09-03T01:20:54.673Z,38.83
2018-09-03T01:23:23.834Z,39.53
2018-09-03T01:25:53.090Z,39.75
2018-09-03T01:28:22.302Z,40.40
2018-09-03T01:30:51.489Z,40.13
2018-09-03T01:33:20.737Z,39.13
2018-09-03T01:35:49.900Z,39.00
2018-09-03T01:38:19.388Z,40.27
2018-09-03T01:40:48.616Z,39.85
2018-09-03T01:43:17.813Z,39.48
2018-09-03T01:45:46.987Z,41.13
2018-09-03T01:48:16.506Z,40.50
2018-09-03T01:50:45.718Z,42.48
2018-09-03T01:53:14.882Z,42.77
2018-09-03T01:55:44.096Z,42.33
2018-09-03T01:58:13.317Z,39.10
2018-09-03T02:00:42.677Z,39.43
2018-09-03T02:03:11.960Z,39.30
2018-09-03T02:05:41.312Z,39.43
2018-09-03T02:08:10.960Z,39.50
2018-09-03T02:10:40.197Z,38.30
2018-09-03T02:13:09.472Z,37.80
2018-09-03T02:15:38.694Z,37.60
2018-09-03T02:18:07.884Z,37.03
2018-09-03T02:20:37.086Z,37.13
2018-09-03T02:23:06.498Z,36.40
2018-09-03T02:25:35.794Z,34.80
2018-09-03T02:28:05.010Z,36.57
2018-09-03T02:30:34.276Z,38.40
2018-09-03T02:33:04.200Z,36.07
2018-09-03T02:35:34.139Z,37.50
2018-09-03T02:38:03.440Z,37.42
2018-09-03T02:40:32.656Z,36.50
2018-09-03T02:43:01.852Z,36.83
2018-09-03T02:45:31.115Z,37.03
2018-09-03T02:48:00.349Z,37.90
2018-09-03T02:50:29.532Z,37.27
2018-09-03T02:52:58.752Z,37.67
2018-09-03T02:55:27.972Z,36.53
2018-09-03T02:57:57.137Z,37.67
2018-09-03T03:00:27.329Z,38.63
2018-09-03T03:02:57.959Z,39.20
2018-09-03T03:05:27.964Z,37.28
2018-09-03T03:07:57.351Z,36.37
2018-09-03T03:10:26.523Z,38.50
2018-09-03T03:12:55.715Z,38.10
2018-09-03T03:15:24.932Z,38.60
2018-09-03T03:17:54.120Z,38.20
2018-09-03T03:20:23.319Z,38.57
2018-09-03T03:22:52.515Z,37.40
2018-09-03T03:25:21.765Z,39.33
2018-09-03T03:27:50.926Z,40.07
2018-09-03T03:30:20.182Z,37.80
2018-09-03T03:32:50.023Z,37.80
2018-09-03T03:35:19.203Z,39.08
2018-09-03T03:37:49.361Z,38.90
2018-09-03T03:40:19.573Z,40.43
2018-09-03T03:42:48.786Z,41.50
2018-09-03T03:45:18.049Z,38.60
2018-09-03T03:47:47.277Z,40.40
2018-09-03T03:50:16.471Z,38.57
2018-09-03T03:52:45.700Z,41.47
2018-09-03T03:55:14.966Z,39.70
2018-09-03T03:57:44.101Z,42.43
2018-09-03T04:00:13.253Z,43.00
2018-09-03T04:02:42.473Z,44.60
2018-09-03T04:05:11.676Z,42.80
2018-09-03T04:07:40.896Z,47.57
2018-09-03T04:10:10.105Z,45.13
2018-09-03T04:12:42.150Z,43.67
2018-09-03T04:15:11.403Z,45.47
2018-09-03T04:17:40.624Z,43.60
2018-09-03T04:20:09.809Z,45.40
2018-09-03T04:22:39.022Z,46.50
2018-09-03T04:25:08.418Z,44.97
2018-09-03T04:27:37.592Z,43.17
2018-09-03T04:30:06.929Z,43.07
2018-09-03T04:32:36.104Z,43.37
2018-09-03T04:35:05.489Z,45.63
2018-09-03T04:37:34.710Z,42.37
2018-09-03T04:40:03.909Z,46.53
2018-09-03T04:42:33.110Z,45.67
2018-09-03T04:45:02.285Z,46.00
2018-09-03T04:47:31.510Z,44.60
2018-09-03T04:50:00.671Z,45.10
2018-09-03T04:52:29.892Z,47.40
2018-09-03T04:54:59.085Z,47.10
2018-09-03T04:57:28.268Z,47.77
2018-09-03T04:59:57.590Z,46.70
2018-09-03T05:02:26.793Z,47.77
2018-09-03T05:04:55.987Z,48.13
2018-09-03T05:07:25.189Z,49.00
2018-09-03T05:09:54.489Z,48.03
2018-09-03T05:12:23.690Z,51.70
2018-09-03T05:14:52.891Z,51.83
2018-09-03T05:17:22.129Z,51.08
2018-09-03T05:19:51.277Z,51.00
2018-09-03T05:22:20.453Z,48.20
2018-09-03T05:24:49.677Z,49.70
2018-09-03T05:27:18.882Z,49.90
2018-09-03T05:29:48.140Z,49.67
2018-09-03T05:32:17.287Z,49.60
2018-09-03T05:34:46.474Z,49.90
2018-09-03T05:37:15.661Z,49.18
2018-09-03T05:39:46.158Z,49.70
2018-09-03T05:42:15.326Z,49.23
2018-09-03T05:44:44.507Z,48.37
2018-09-03T05:47:13.689Z,49.10
2018-09-03T05:49:42.850Z,45.60
2018-09-03T05:52:12.112Z,37.87
2018-09-03T05:54:41.314Z,39.90
2018-09-03T05:57:11.298Z,37.87
2018-09-03T05:59:40.513Z,40.27
2018-09-03T06:02:09.777Z,37.10
2018-09-03T06:04:39.309Z,38.27
2018-09-03T06:07:08.548Z,34.63
2018-09-03T06:09:37.742Z,35.30
2018-09-03T06:12:06.972Z,31.90
2018-09-03T06:14:36.117Z,32.60
2018-09-03T06:17:05.567Z,31.27
2018-09-03T06:19:34.722Z,29.87
2018-09-03T06:22:03.975Z,29.60
2018-09-03T06:24:33.144Z,30.47
2018-09-03T06:27:02.297Z,30.05
2018-09-03T06:29:31.476Z,30.60
2018-09-03T06:32:00.656Z,28.67
2018-09-03T06:34:29.852Z,29.60
2018-09-03T06:36:59.238Z,27.23
2018-09-03T06:39:28.475Z,28.45
2018-09-03T06:41:57.677Z,26.77
2018-09-03T06:44:26.945Z,24.83
2018-09-03T06:46:56.139Z,26.67
2018-09-03T06:49:25.288Z,24.92
2018-09-03T06:51:54.476Z,27.77
2018-09-03T06:54:23.829Z,26.97
2018-09-03T06:56:53.025Z,27.73
2018-09-03T06:59:22.252Z,29.03
2018-09-03T07:01:51.763Z,29.13
2018-09-03T07:04:20.905Z,28.13
2018-09-03T07:06:50.149Z,27.63
2018-09-03T07:09:19.246Z,30.37
2018-09-03T07:11:48.446Z,29.50
2018-09-03T07:14:17.618Z,29.43
2018-09-03T07:16:46.812Z,27.80
2018-09-03T07:19:16.013Z,27.75
2018-09-03T07:21:45.175Z,27.03
2018-09-03T07:24:15.445Z,28.77
2018-09-03T07:26:44.722Z,28.42
2018-09-03T07:29:13.889Z,28.60
2018-09-03T07:31:43.075Z,28.67
2018-09-03T07:34:12.237Z,28.73
2018-09-03T07:36:41.461Z,27.67
2018-09-03T07:39:11.270Z,28.70
2018-09-03T07:41:40.434Z,27.13
2018-09-03T07:44:09.695Z,24.87
2018-09-03T07:46:38.777Z,24.00
2018-09-03T07:49:08.194Z,23.10
2018-09-03T07:51:37.362Z,25.47
2018-09-03T07:54:07.043Z,22.50
2018-09-03T07:56:36.211Z,20.20
2018-09-03T07:59:05.583Z,20.93
2018-09-03T08:01:34.696Z,20.10
2018-09-03T08:04:03.870Z,21.93
2018-09-03T08:06:33.047Z,21.03
2018-09-03T08:09:02.193Z,20.80
2018-09-03T08:11:31.372Z,20.00
2018-09-03T08:14:00.679Z,18.10
2018-09-03T08:16:29.878Z,19.30
2018-09-03T08:18:59.042Z,16.40
2018-09-03T08:21:28.237Z,14.60
2018-09-03T08:23:57.501Z,15.80
2018-09-03T08:26:26.670Z,15.80
2018-09-03T08:28:55.856Z,13.97
2018-09-03T08:31:25.469Z,14.35
2018-09-03T08:33:54.681Z,12.10
2018-09-03T08:36:23.844Z,11.63
2018-09-03T08:38:53.022Z,10.55
2018-09-03T08:41:22.166Z,11.03
2018-09-03T08:43:51.391Z,10.97
2018-09-03T08:46:20.562Z,10.20
2018-09-03T08:48:49.779Z,10.60
2018-09-03T08:51:19.068Z,10.80
2018-09-03T08:53:48.281Z,10.40
2018-09-03T08:56:17.677Z,11.43
2018-09-03T08:58:46.854Z,9.97
2018-09-03T09:01:16.060Z,9.10
2018-09-03T09:03:45.408Z,10.20
2018-09-03T09:06:14.589Z,11.00
2018-09-03T09:08:43.783Z,10.13
2018-09-03T09:11:12.979Z,10.80
2018-09-03T09:13:42.146Z,10.13
2018-09-03T09:16:11.293Z,10.63
2018-09-03T09:18:40.520Z,12.97
2018-09-03T09:21:09.822Z,12.17
2018-09-03T09:23:38.995Z,13.30
2018-09-03T09:26:08.206Z,12.80
2018-09-03T09:28:37.392Z,12.90
2018-09-03T09:31:06.990Z,11.20
2018-09-03T09:33:36.137Z,11.53
2018-09-03T09:36:05.377Z,10.27
2018-09-03T09:38:34.555Z,12.33
2018-09-03T09:41:03.763Z,10.80
2018-09-03T09:43:33.040Z,9.70
2018-09-03T09:46:02.316Z,9.60
2018-09-03T09:48:31.469Z,8.87
2018-09-03T09:51:00.675Z,9.97
2018-09-03T09:53:29.883Z,10.27
2018-09-03T09:55:59.196Z,9.30
2018-09-03T09:58:29.090Z,9.10
2018-09-03T10:01:03.573Z,8.10
2018-09-03T10:03:33.176Z,9.70
2018-09-03T10:06:02.367Z,10.33
2018-09-03T10:08:31.539Z,10.40
2018-09-03T10:11:00.757Z,11.33
2018-09-03T10:13:29.949Z,15.17
2018-09-03T10:15:59.137Z,16.00
2018-09-03T10:18:28.372Z,16.73
2018-09-03T10:20:57.974Z,16.80
2018-09-03T10:23:27.145Z,15.18
2018-09-03T10:25:56.426Z,16.13
2018-09-03T10:28:25.580Z,17.13
2018-09-03T10:30:54.908Z,15.80
2018-09-03T10:33:24.117Z,16.80
2018-09-03T10:35:53.305Z,18.30
2018-09-03T10:38:22.476Z,16.63
2018-09-03T10:40:51.754Z,16.13
2018-09-03T10:43:20.897Z,16.13
2018-09-03T10:45:50.078Z,16.23
2018-09-03T10:48:19.311Z,18.67
2018-09-03T10:50:48.486Z,17.50
2018-09-03T10:53:17.712Z,18.17
2018-09-03T10:55:46.898Z,17.47
2018-09-03T10:58:16.091Z,16.80
2018-09-03T11:00:45.261Z,15.13
2018-09-03T11:03:14.465Z,15.00
2018-09-03T11:05:43.708Z,14.57
2018-09-03T11:08:12.882Z,14.37
2018-09-03T11:10:42.091Z,12.33
2018-09-03T11:13:11.320Z,11.30
2018-09-03T11:15:40.962Z,12.23
2018-09-03T11:18:10.191Z,10.37
2018-09-03T11:20:39.668Z,11.23
2018-09-03T11:23:09.009Z,9.80
2018-09-03T11:25:38.490Z,8.17
2018-09-03T11:28:07.826Z,9.20
2018-09-03T11:30:37.151Z,8.17
2018-09-03T11:33:06.693Z,8.93
2018-09-03T11:35:35.881Z,7.90
2018-09-03T11:38:05.130Z,8.27
2018-09-03T11:40:34.421Z,9.10
2018-09-03T11:43:03.632Z,8.40
2018-09-03T11:45:33.177Z,9.53
2018-09-03T11:48:02.381Z,9.27
2018-09-03T11:50:31.624Z,8.67
2018-09-03T11:53:00.854Z,7.12
2018-09-03T11:55:30.082Z,9.87
2018-09-03T11:57:59.361Z,8.60
2018-09-03T12:00:30.832Z,10.03
2018-09-03T12:03:00.305Z,8.80
2018-09-03T12:05:30.089Z,9.10
2018-09-03T12:07:59.377Z,8.80
2018-09-03T12:10:28.555Z,8.60
2018-09-03T12:12:57.717Z,9.03
2018-09-03T12:15:35.983Z,9.08
2018-09-03T12:18:05.170Z,9.03
2018-09-03T12:20:34.316Z,8.57
2018-09-03T12:23:03.531Z,8.27
2018-09-03T12:25:32.721Z,7.90
2018-09-03T12:28:01.920Z,8.00
2018-09-03T12:30:31.134Z,8.33
2018-09-03T12:33:00.610Z,7.77
2018-09-03T12:35:29.827Z,7.53
2018-09-03T12:37:59.083Z,7.80
2018-09-03T12:40:28.264Z,9.27
2018-09-03T12:42:57.479Z,8.67
2018-09-03T12:45:31.897Z,8.00
2018-09-03T12:48:01.443Z,8.57
2018-09-03T12:50:30.679Z,9.57
2018-09-03T12:52:59.900Z,9.07
2018-09-03T12:55:29.141Z,9.48
2018-09-03T12:57:58.362Z,8.93
2018-09-03T13:00:27.561Z,8.33
2018-09-03T13:02:56.820Z,8.53
2018-09-03T13:05:25.969Z,8.05
2018-09-03T13:07:55.179Z,8.43
2018-09-03T13:10:24.519Z,9.00
2018-09-03T13:12:53.773Z,9.50
2018-09-03T13:15:23.081Z,9.33
2018-09-03T13:17:52.296Z,8.87
2018-09-03T13:20:21.526Z,9.37
2018-09-03T13:22:50.702Z,8.30
2018-09-03T13:25:19.910Z,7.78
2018-09-03T13:27:49.131Z,7.63
2018-09-03T13:30:18.354Z,7.60
2018-09-03T13:32:47.530Z,7.60
2018-09-03T13:35:16.753Z,7.70
2018-09-03T13:37:45.947Z,8.57
2018-09-03T13:40:15.347Z,7.93
2018-09-03T13:42:44.526Z,7.90
2018-09-03T13:45:13.761Z,7.50
2018-09-03T13:47:42.952Z,8.47
2018-09-03T13:50:12.175Z,8.60
2018-09-03T13:52:41.455Z,7.77
2018-09-03T13:55:11.505Z,7.45
2018-09-03T13:57:40.684Z,7.83
2018-09-03T14:00:10.984Z,7.47
2018-09-03T14:02:40.293Z,6.97
2018-09-03T14:05:09.637Z,7.50
2018-09-03T14:07:38.917Z,7.10
2018-09-03T14:10:08.247Z,6.90
2018-09-03T14:12:37.462Z,6.30
2018-09-03T14:15:07.037Z,6.13
2018-09-03T14:17:36.287Z,6.37
2018-09-03T14:20:05.590Z,6.30
2018-09-03T14:22:34.753Z,6.50
2018-09-03T14:25:03.931Z,6.70
2018-09-03T14:27:33.137Z,5.83
2018-09-03T14:30:02.333Z,5.90
2018-09-03T14:32:31.606Z,5.10
2018-09-03T14:35:00.772Z,4.77
2018-09-03T14:37:30.186Z,5.03
2018-09-03T14:39:59.375Z,5.10
2018-09-03T14:42:28.579Z,5.37
2018-09-03T14:44:57.807Z,5.20
2018-09-03T14:47:27.050Z,5.17
2018-09-03T14:49:56.409Z,9.43
2018-09-03T14:52:25.784Z,7.50
2018-09-03T14:54:54.970Z,6.80
2018-09-03T14:57:24.142Z,6.30
2018-09-03T14:59:53.398Z,5.60
2018-09-03T15:02:22.550Z,7.63
2018-09-03T15:04:51.828Z,6.37
2018-09-03T15:07:21.017Z,6.23
2018-09-03T15:09:50.196Z,8.00
2018-09-03T15:12:19.406Z,7.92
2018-09-03T15:14:48.666Z,8.23
2018-09-03T15:17:17.773Z,8.53
2018-09-03T15:19:46.979Z,8.53
2018-09-03T15:22:16.165Z,7.77
2018-09-03T15:24:45.349Z,8.83
2018-09-03T15:27:14.556Z,10.10
2018-09-03T15:29:43.741Z,9.57
2018-09-03T15:32:12.933Z,7.53
2018-09-03T15:34:42.138Z,8.47
2018-09-03T15:37:11.430Z,8.20
2018-09-03T15:39:40.635Z,8.83
2018-09-03T15:42:09.841Z,9.10
2018-09-03T15:44:39.037Z,9.80
2018-09-03T15:47:08.392Z,10.47
2018-09-03T15:49:37.538Z,11.50
2018-09-03T15:52:06.750Z,11.03
2018-09-03T15:54:35.905Z,11.50
2018-09-03T15:57:05.179Z,13.30
2018-09-03T15:59:34.364Z,12.93
2018-09-03T16:02:04.185Z,14.77
2018-09-03T16:04:33.333Z,14.27
2018-09-03T16:07:02.500Z,15.80
2018-09-03T16:09:31.640Z,16.10
2018-09-03T16:12:00.810Z,16.60
2018-09-03T16:14:30.012Z,16.53
2018-09-03T16:16:59.394Z,17.27
2018-09-03T16:19:28.573Z,17.98
2018-09-03T16:21:57.812Z,17.67
2018-09-03T16:24:26.986Z,13.87
2018-09-03T16:26:56.166Z,12.17
2018-09-03T16:29:25.337Z,14.43
2018-09-03T16:31:54.619Z,14.17
2018-09-03T16:34:23.814Z,15.23
2018-09-03T16:36:54.352Z,16.83
2018-09-03T16:39:23.512Z,15.88
2018-09-03T16:41:52.674Z,17.53
2018-09-03T16:44:21.865Z,16.10
2018-09-03T16:46:51.042Z,16.90
2018-09-03T16:49:20.230Z,17.10
2018-09-03T16:51:49.434Z,16.97
2018-09-03T16:54:18.647Z,17.60
2018-09-03T16:56:47.832Z,17.92
2018-09-03T16:59:16.992Z,14.70
2018-09-03T17:01:46.170Z,16.67
2018-09-03T17:04:15.444Z,16.50
2018-09-03T17:06:44.681Z,16.40
2018-09-03T17:09:13.846Z,17.80
2018-09-03T17:11:43.041Z,17.67
2018-09-03T17:14:12.227Z,17.70
2018-09-03T17:16:41.391Z,18.50
2018-09-03T17:19:11.475Z,30.77
2018-09-03T17:21:40.661Z,58.87
2018-09-03T17:24:11.765Z,32.53
2018-09-03T17:26:40.917Z,28.03
2018-09-03T17:29:10.100Z,20.30
2018-09-03T17:31:39.307Z,21.57
2018-09-03T17:34:08.487Z,18.37
2018-09-03T17:36:37.705Z,12.17
2018-09-03T17:39:08.025Z,10.77
2018-09-03T17:41:37.183Z,10.87
2018-09-03T17:44:06.460Z,8.30
2018-09-03T17:46:35.647Z,8.40
2018-09-03T17:49:04.851Z,6.20
2018-09-03T17:51:34.020Z,6.97
2018-09-03T17:54:03.218Z,5.33
2018-09-03T17:56:32.381Z,5.20
2018-09-03T17:59:01.661Z,6.07
2018-09-03T18:01:30.965Z,4.80
2018-09-03T18:04:00.299Z,5.30
2018-09-03T18:06:29.482Z,6.53
2018-09-03T18:08:58.669Z,4.60
2018-09-03T18:11:28.313Z,4.53
2018-09-03T18:13:57.525Z,4.30
2018-09-03T18:16:26.843Z,4.00
2018-09-03T18:18:57.002Z,4.07
2018-09-03T18:21:26.214Z,4.58
2018-09-03T18:23:55.355Z,4.37
2018-09-03T18:26:25.663Z,5.07
2018-09-03T18:28:54.874Z,5.47
2018-09-03T18:31:24.874Z,5.37
2018-09-03T18:33:54.055Z,4.93
2018-09-03T18:36:23.226Z,6.07
2018-09-03T18:38:53.761Z,5.97
2018-09-03T18:41:22.923Z,5.90
2018-09-03T18:43:52.159Z,4.80
2018-09-03T18:46:21.313Z,5.20
2018-09-03T18:48:50.482Z,4.47
2018-09-03T18:51:19.729Z,4.90
2018-09-03T18:53:49.026Z,4.57
2018-09-03T18:56:18.195Z,3.58
2018-09-03T18:58:47.397Z,4.20
2018-09-03T19:01:16.537Z,3.80
2018-09-03T19:03:45.695Z,4.70
2018-09-03T19:06:14.968Z,4.60
2018-09-03T19:08:44.041Z,5.00
2018-09-03T19:11:14.683Z,5.63
2018-09-03T19:13:43.854Z,5.60
2018-09-03T19:16:13.017Z,4.87
2018-09-03T19:18:42.400Z,5.60
2018-09-03T19:21:11.560Z,5.60
2018-09-03T19:23:42.412Z,5.90
2018-09-03T19:26:11.619Z,5.20
2018-09-03T19:28:40.794Z,5.53
2018-09-03T19:31:09.998Z,6.50
2018-09-03T19:33:39.218Z,6.57
2018-09-03T19:36:08.417Z,5.97
2018-09-03T19:38:37.575Z,5.90
2018-09-03T19:41:07.017Z,6.30
2018-09-03T19:43:36.266Z,5.93
2018-09-03T19:46:05.432Z,6.43
2018-09-03T19:48:34.579Z,6.70
2018-09-03T19:51:03.749Z,6.28
2018-09-03T19:53:32.944Z,6.30
2018-09-03T19:56:02.049Z,6.10
2018-09-03T19:58:31.294Z,6.17
2018-09-03T20:01:00.480Z,6.10
2018-09-03T20:03:29.654Z,6.42
2018-09-03T20:05:58.890Z,6.10
2018-09-03T20:08:28.109Z,6.47
2018-09-03T20:10:57.225Z,8.30
2018-09-03T20:13:26.720Z,8.43
2018-09-03T20:15:55.912Z,8.57
2018-09-03T20:18:25.103Z,9.77
2018-09-03T20:20:54.281Z,11.30
2018-09-03T20:23:23.958Z,9.38
2018-09-03T20:25:53.217Z,9.40
2018-09-03T20:28:22.443Z,8.48
2018-09-03T20:30:51.574Z,9.07
2018-09-03T20:33:20.762Z,8.77
2018-09-03T20:35:49.956Z,8.93
2018-09-03T20:38:19.145Z,8.97
2018-09-03T20:40:48.319Z,9.80
2018-09-03T20:43:17.502Z,13.50
2018-09-03T20:45:46.656Z,12.70
2018-09-03T20:48:15.856Z,17.10
2018-09-03T20:50:45.056Z,17.87
2018-09-03T20:53:14.252Z,17.50
2018-09-03T20:55:43.619Z,15.10
2018-09-03T20:58:12.809Z,17.32
2018-09-03T21:00:42.030Z,18.00
2018-09-03T21:03:11.203Z,18.63
2018-09-03T21:05:40.368Z,19.10
2018-09-03T21:08:09.560Z,20.13
2018-09-03T21:10:38.702Z,20.23
2018-09-03T21:13:08.046Z,20.60
2018-09-03T21:15:37.401Z,20.45
2018-09-03T21:18:06.539Z,20.87
2018-09-03T21:20:35.718Z,22.20
2018-09-03T21:23:04.905Z,22.22
2018-09-03T21:25:34.046Z,18.90
2018-09-03T21:28:03.274Z,20.77
2018-09-03T21:30:32.420Z,20.60
2018-09-03T21:33:01.586Z,23.03
2018-09-03T21:35:30.791Z,21.50
2018-09-03T21:38:00.063Z,19.00
2018-09-03T21:40:29.223Z,19.77
2018-09-03T21:42:58.411Z,18.87
2018-09-03T21:45:27.569Z,21.95
2018-09-03T21:47:56.746Z,21.97
2018-09-03T21:50:25.896Z,21.17
2018-09-03T21:52:55.091Z,20.83
2018-09-03T21:55:24.233Z,21.60
2018-09-03T21:57:53.466Z,21.03
2018-09-03T22:00:22.687Z,22.13
2018-09-03T22:02:51.909Z,22.70
2018-09-03T22:05:21.118Z,23.70
2018-09-03T22:07:50.255Z,24.13
2018-09-03T22:10:19.481Z,21.80
2018-09-03T22:12:48.671Z,21.33
2018-09-03T22:15:17.837Z,20.60
2018-09-03T22:17:46.977Z,19.40
2018-09-03T22:20:16.179Z,19.12
2018-09-03T22:22:46.187Z,19.77
2018-09-03T22:25:15.381Z,18.57
2018-09-03T22:27:44.622Z,18.20
2018-09-03T22:30:13.860Z,19.73
2018-09-03T22:32:44.677Z,18.43
2018-09-03T22:35:14.035Z,19.05
2018-09-03T22:37:43.750Z,19.00
2018-09-03T22:40:12.904Z,19.20
2018-09-03T22:42:42.165Z,19.50
2018-09-03T22:45:11.541Z,17.70
2018-09-03T22:47:40.753Z,19.07
2018-09-03T22:50:09.972Z,19.43
2018-09-03T22:52:39.181Z,18.90
2018-09-03T22:55:08.569Z,20.17
2018-09-03T22:57:37.765Z,17.53
2018-09-03T23:00:07.050Z,18.07
2018-09-03T23:02:41.570Z,16.60
2018-09-03T23:05:12.320Z,18.50
2018-09-03T23:07:41.466Z,18.53
2018-09-03T23:10:10.946Z,20.27
2018-09-03T23:12:40.152Z,19.47
2018-09-03T23:15:09.915Z,19.70
2018-09-03T23:17:39.125Z,20.00
2018-09-03T23:20:08.355Z,20.57
2018-09-03T23:22:37.498Z,21.40
2018-09-03T23:25:06.959Z,22.40
2018-09-03T23:27:36.097Z,21.20
2018-09-03T23:30:05.449Z,21.30
2018-09-03T23:32:34.710Z,19.17
2018-09-03T23:35:04.050Z,21.47
2018-09-03T23:37:33.356Z,23.63
2018-09-03T23:40:02.961Z,22.00
2018-09-03T23:42:32.177Z,23.23
2018-09-03T23:45:01.408Z,22.63
2018-09-03T23:47:30.688Z,23.57
2018-09-03T23:49:59.965Z,24.20
2018-09-03T23:52:29.117Z,23.30
2018-09-03T23:54:58.341Z,24.90
2018-09-03T23:57:27.561Z,22.60
2018-09-03T23:59:56.777Z,22.43
